D/T METAR WX W/DIR W/SPE G/SPE TEMP DEWP
23/05/19 13:50 EGPB 231250Z 32006KT 4000 -RADZ BR FEW003 BKN004 10/09 Q1002 TEMPO 6000 NSW BKN006 -RA -DZ BR NW (320°) 6.9mph 10°C 9°C
23/05/19 12:50 EGPB 231150Z 31008KT 6000 -RADZ FEW003 BKN004 09/09 Q1002 TEMPO BKN006 -RA -DZ NW (310°) 9.2mph 9°C 9°C
23/05/19 12:20 EGPB 231120Z 31009KT 5000 -RADZ BR FEW003 BKN004 09/09 Q1002 TEMPO BKN006 -RA -DZ BR NW (310°) 10.4mph 9°C 9°C
23/05/19 11:50 EGPB 231050Z 30010KT 4000 -RADZ BR FEW003 BKN004 09/09 Q1002 NOSIG -RA -DZ BR WNW (300°) 11.5mph 9°C 9°C
23/05/19 10:50 EGPB 230950Z 30011KT 7000 -RADZ FEW003 BKN004 09/09 Q1002 -RA -DZ WNW (300°) 12.7mph 9°C 9°C
23/05/19 10:20 EGPB 230920Z 30009KT 7000 -RA FEW003 BKN004 09/08 Q1002 -RA WNW (300°) 10.4mph 9°C 8°C
23/05/19 09:50 EGPB 230850Z 30010KT 5000 -RA BR FEW003 BKN004 09/08 Q1002 TEMPO 4000 -RA BR WNW (300°) 11.5mph 9°C 8°C
23/05/19 09:20 EGPB 230820Z 29011KT 5000 -RADZ BR FEW003 BKN004 09/08 Q1002 -RA -DZ BR WNW (290°) 12.7mph 9°C 8°C
23/05/19 08:50 EGPB 230750Z 29011KT 4000 -RADZ BR SCT002 BKN003 09/08 Q1002 TEMPO 6000 NSW BKN005 -RA -DZ BR WNW (290°) 12.7mph 9°C 8°C
23/05/19 07:50 EGPB 230650Z 29009KT 7000 FEW003 BKN004 09/08 Q1003 WNW (290°) 10.4mph 9°C 8°C
23/05/19 07:20 EGPB 230620Z 28009KT 4500 -DZ BR SCT002 BKN003 09/08 Q1003 NOSIG -DZ BR W (280°) 10.4mph 9°C 8°C
23/05/19 06:50 EGPB 230550Z 28009KT 4000 -DZ BR SCT002 BKN003 09/08 Q1003 TEMPO 6000 NSW BKN005 -DZ BR W (280°) 10.4mph 9°C 8°C
23/05/19 06:20 EGPB 230520Z 27009KT 4500 -DZ BR SCT002 BKN003 09/08 Q1003 TEMPO 6000 NSW -DZ BR W (270°) 10.4mph 9°C 8°C
23/05/19 05:50 EGPB 230450Z AUTO 29003KT 2200 DZ OVC003/// 09/08 Q1004 DZ WNW (290°) 3.5mph 9°C 8°C
23/05/19 04:50 EGPB 230350Z AUTO 32004KT 6000 OVC004/// 09/08 Q1004 NW (320°) 4.6mph 9°C 8°C
23/05/19 04:20 EGPB 230320Z AUTO 31006KT 9999 BKN007/// OVC020/// 09/08 Q1004 NW (310°) 6.9mph 9°C 8°C
23/05/19 03:20 EGPB 230220Z AUTO 32005KT 9999 BKN006/// OVC024/// 09/08 Q1005 NW (320°) 5.8mph 9°C 8°C
23/05/19 02:50 EGPB 230150Z AUTO 32006KT 9999 OVC006/// 09/08 Q1005 NW (320°) 6.9mph 9°C 8°C
23/05/19 02:20 EGPB 230120Z AUTO 31007KT 9999 OVC006/// 09/08 Q1005 NW (310°) 8.1mph 9°C 8°C
23/05/19 01:50 EGPB 230050Z AUTO 33005KT 9999 OVC004/// 09/08 Q1005 NNW (330°) 5.8mph 9°C 8°C
23/05/19 00:50 EGPB 222350Z AUTO 32006KT 9999 OVC004/// 09/08 Q1006 NW (320°) 6.9mph 9°C 8°C
23/05/19 00:20 EGPB 222320Z AUTO 33006KT 9999 OVC004/// 09/08 Q1006 NNW (330°) 6.9mph 9°C 8°C
22/05/19 23:50 EGPB 222250Z AUTO 32006KT 9999 BKN004/// BKN013/// OVC027/// 09/08 Q1006 NW (320°) 6.9mph 9°C 8°C
22/05/19 23:20 EGPB 222220Z AUTO 32005KT 9999 BKN005/// OVC014/// 09/08 Q1006 NW (320°) 5.8mph 9°C 8°C
22/05/19 22:50 EGPB 222150Z AUTO 33004KT 9999 BKN005/// OVC017/// 09/08 Q1006 NNW (330°) 4.6mph 9°C 8°C
22/05/19 22:20 EGPB 222120Z AUTO 32005KT 9999 OVC006/// 09/08 Q1006 NW (320°) 5.8mph 9°C 8°C
22/05/19 21:50 EGPB 222050Z AUTO 33003KT 6000 OVC004/// 09/08 Q1007 NNW (330°) 3.5mph 9°C 8°C
22/05/19 21:20 EGPB 222020Z AUTO 32005KT 2700 -DZ OVC003/// 09/08 Q1007 -DZ NW (320°) 5.8mph 9°C 8°C
22/05/19 20:50 EGPB 221950Z AUTO 33003KT 3800 BR OVC003/// 09/09 Q1007 BR NNW (330°) 3.5mph 9°C 9°C
22/05/19 19:50 EGPB 221850Z 33005KT 5000 -DZ BR FEW003 SCT004 BKN009 09/09 Q1007 TEMPO BKN006 -DZ BR NNW (330°) 5.8mph 9°C 9°C
22/05/19 19:20 EGPB 221820Z 34005KT 5000 -DZ BR FEW003 SCT005 BKN009 09/09 Q1007 TEMPO BKN006 -DZ BR NNW (340°) 5.8mph 9°C 9°C
22/05/19 19:20 EGPB 221820Z 34005KT 5000 -DZ BR FEW003 SCT005 BKN009 09/09 Q1007 -DZ BR NNW (340°) 5.8mph 9°C 9°C
22/05/19 18:50 EGPB 221750Z 34005KT 7000 -RA FEW003 SCT006 BKN013 09/09 Q1007 -RA NNW (340°) 5.8mph 9°C 9°C
22/05/19 18:20 EGPB 221720Z 33005KT 7000 -RA FEW003 SCT006 BKN011 09/09 Q1007 -RA NNW (330°) 5.8mph 9°C 9°C
22/05/19 17:50 EGPB 221650Z 34006KT 9999 FEW004 SCT006 BKN012 09/09 Q1008 NNW (340°) 6.9mph 9°C 9°C
22/05/19 16:50 EGPB 221550Z 35007KT 9999 FEW004 SCT008 BKN013 10/09 Q1008 N (350°) 8.1mph 10°C 9°C
22/05/19 16:20 EGPB 221520Z 34007KT 8000 -RA FEW005 SCT008 BKN011 10/09 Q1008 -RA NNW (340°) 8.1mph 10°C 9°C
22/05/19 15:50 EGPB 221450Z 01004KT 9999 VCSH FEW006 SCT008 BKN012 10/09 Q1008 VCSH N (10°) 4.6mph 10°C 9°C
22/05/19 15:20 EGPB 221420Z 03006KT 9999 VCSH FEW006 SCT009 BKN013 10/09 Q1009 TEMPO BKN009 VCSH NNE (30°) 6.9mph 10°C 9°C
22/05/19 14:20 EGPB 221320Z 03009KT 9999 FEW004 SCT006 BKN013 10/09 Q1009 TEMPO 4000 RA BKN004 NNE (30°) 10.4mph 10°C 9°C
22/05/19 13:50 EGPB 221250Z 02009KT 9999 4500NW -RA FEW003 SCT006 BKN014 10/09 Q1009 TEMPO 4000 RA BKN004 -RA NNE (20°) 10.4mph 10°C 9°C
22/05/19 13:50 EGPB 221250Z 02009KT 9999 4500NW -RA FEW003 SCT006 BKN014 10/09 Q1009 -RA NNE (20°) 10.4mph 10°C 9°C
22/05/19 13:20 EGPB 221220Z 01008KT 4000 -RA BR FEW003 BKN004 10/09 Q1009 RERA -RA BR N (10°) 9.2mph 10°C 9°C
22/05/19 12:50 EGPB 221150Z 36007KT 3500 RA BR FEW003 BKN004 10/09 Q1009 RERA RA BR N (360°) 8.1mph 10°C 9°C
22/05/19 12:20 EGPB 221120Z 35006KT 4500 RA BR FEW004 BKN005 10/09 Q1009 RA BR N (350°) 6.9mph 10°C 9°C
22/05/19 11:50 EGPB 221050Z 01006KT 5000 -RA BR FEW004 BKN005 10/09 Q1009 -RA BR N (10°) 6.9mph 10°C 9°C
22/05/19 11:20 EGPB 221020Z 35006KT 5000 -DZ BR SCT003 BKN005 10/09 Q1009 RERA -DZ BR N (350°) 6.9mph 10°C 9°C
22/05/19 10:50 EGPB 220950Z 34006KT 3500 -RA BR FEW003 BKN004 10/09 Q1010 -RA BR NNW (340°) 6.9mph 10°C 9°C